createdAt,value
2023-02-11T00:00:24.341Z,9.17
2023-02-11T00:02:54.979Z,9.18
2023-02-11T00:05:21.753Z,9.19
2023-02-11T00:07:48.425Z,9.18
2023-02-11T00:10:15.387Z,9.17
2023-02-11T00:12:43.251Z,9.16
2023-02-11T00:15:10.539Z,9.14
2023-02-11T00:17:37.421Z,9.13
2023-02-11T00:20:07.228Z,9.11
2023-02-11T00:22:34.912Z,9.10
2023-02-11T00:25:04.296Z,9.10
2023-02-11T00:27:30.996Z,9.11
2023-02-11T00:29:57.686Z,9.11
2023-02-11T00:32:24.598Z,9.10
2023-02-11T00:34:53.627Z,9.10
2023-02-11T00:37:20.270Z,9.10
2023-02-11T00:39:47.293Z,9.09
2023-02-11T00:42:15.348Z,9.08
2023-02-11T00:44:42.051Z,9.08
2023-02-11T00:47:08.844Z,9.07
2023-02-11T00:49:37.029Z,9.07
2023-02-11T00:52:03.941Z,9.07
2023-02-11T00:54:30.775Z,9.07
2023-02-11T00:56:57.559Z,9.07
2023-02-11T00:59:24.324Z,9.09
2023-02-11T01:01:51.200Z,9.07
2023-02-11T01:04:17.955Z,9.07
2023-02-11T01:06:44.805Z,9.08
2023-02-11T01:09:11.669Z,9.08
2023-02-11T01:11:38.371Z,9.09
2023-02-11T01:14:05.128Z,9.09
2023-02-11T01:16:32.222Z,9.10
2023-02-11T01:18:59.044Z,9.11
2023-02-11T01:21:26.432Z,9.11
2023-02-11T01:23:53.485Z,9.10
2023-02-11T01:26:20.215Z,9.11
2023-02-11T01:28:46.949Z,9.12
2023-02-11T01:31:14.482Z,9.13
2023-02-11T01:33:41.529Z,9.14
2023-02-11T01:36:08.873Z,9.14
2023-02-11T01:38:36.315Z,9.11
2023-02-11T01:41:07.118Z,9.05
2023-02-11T01:43:44.184Z,9.00
2023-02-11T01:46:32.554Z,8.92
2023-02-11T01:49:18.617Z,8.85
2023-02-11T01:52:01.094Z,8.77
2023-02-11T01:54:51.356Z,8.74
2023-02-11T01:57:25.328Z,8.72
2023-02-11T01:59:57.353Z,8.71
2023-02-11T02:02:30.428Z,8.71
2023-02-11T02:05:10.215Z,8.73
2023-02-11T02:07:46.192Z,8.75
2023-02-11T02:10:19.848Z,8.75
2023-02-11T02:12:46.596Z,8.74
2023-02-11T02:15:19.604Z,8.76
2023-02-11T02:17:57.600Z,8.75
2023-02-11T02:20:36.692Z,8.75
2023-02-11T02:23:12.866Z,8.74
2023-02-11T02:25:59.084Z,8.73
2023-02-11T02:29:10.225Z,8.70
2023-02-11T02:32:14.550Z,8.69
2023-02-11T02:34:50.319Z,8.70
2023-02-11T02:37:36.929Z,8.69
2023-02-11T02:40:10.037Z,8.63
2023-02-11T02:42:39.920Z,8.58
2023-02-11T02:45:09.111Z,8.54
2023-02-11T02:47:35.878Z,8.54
2023-02-11T02:50:04.801Z,8.55
2023-02-11T02:52:51.780Z,8.59
2023-02-11T02:56:09.324Z,8.63
2023-02-11T02:58:47.943Z,8.65
2023-02-11T03:01:39.902Z,8.69
2023-02-11T03:04:07.010Z,8.72
2023-02-11T03:06:46.127Z,8.72
2023-02-11T03:09:23.944Z,8.74
2023-02-11T03:11:50.704Z,8.75
2023-02-11T03:14:19.472Z,8.76
2023-02-11T03:16:48.633Z,8.78
2023-02-11T03:19:23.266Z,8.77
2023-02-11T03:21:51.972Z,8.79
2023-02-11T03:24:39.866Z,8.79
2023-02-11T03:27:27.870Z,8.80
2023-02-11T03:30:17.194Z,8.77
2023-02-11T03:33:08.932Z,8.72
2023-02-11T03:35:44.125Z,8.69
2023-02-11T03:38:18.458Z,8.67
2023-02-11T03:40:45.789Z,8.67
2023-02-11T03:43:20.239Z,8.67
2023-02-11T03:45:50.034Z,8.67
2023-02-11T03:48:23.728Z,8.69
2023-02-11T03:50:52.444Z,8.70
2023-02-11T03:53:21.879Z,8.70
2023-02-11T03:55:51.975Z,8.69
2023-02-11T03:58:19.286Z,8.69
2023-02-11T04:00:46.323Z,8.68
2023-02-11T04:03:13.693Z,8.70
2023-02-11T04:05:40.631Z,8.69
2023-02-11T04:08:08.009Z,8.67
2023-02-11T04:10:34.908Z,8.65
2023-02-11T04:13:05.577Z,8.65
2023-02-11T04:15:32.570Z,8.66
2023-02-11T04:17:59.394Z,8.66
2023-02-11T04:20:26.264Z,8.63
2023-02-11T04:22:52.888Z,8.61
2023-02-11T04:25:19.785Z,8.62
2023-02-11T04:27:46.772Z,8.61
2023-02-11T04:30:13.766Z,8.61
2023-02-11T04:32:40.532Z,8.62
2023-02-11T04:35:07.635Z,8.63
2023-02-11T04:37:34.343Z,8.65
2023-02-11T04:40:01.179Z,8.66
2023-02-11T04:42:28.025Z,8.67
2023-02-11T04:44:54.723Z,8.66
2023-02-11T04:47:21.576Z,8.67
2023-02-11T04:49:48.448Z,8.66
2023-02-11T04:52:15.141Z,8.67
2023-02-11T04:54:41.963Z,8.68
2023-02-11T04:57:08.835Z,8.69
2023-02-11T04:59:35.578Z,8.67
2023-02-11T05:02:02.473Z,8.68
2023-02-11T05:04:29.309Z,8.69
2023-02-11T05:06:58.349Z,8.70
2023-02-11T05:09:25.511Z,8.70
2023-02-11T05:11:52.390Z,8.71
2023-02-11T05:14:19.038Z,8.72
2023-02-11T05:16:45.849Z,8.73
2023-02-11T05:19:12.968Z,8.74
2023-02-11T05:21:41.053Z,8.74
2023-02-11T05:24:12.307Z,8.74
2023-02-11T05:26:39.145Z,8.73
2023-02-11T05:29:06.019Z,8.73
2023-02-11T05:31:33.471Z,8.74
2023-02-11T05:34:00.243Z,8.75
2023-02-11T05:36:26.994Z,8.75
2023-02-11T05:38:53.722Z,8.75
2023-02-11T05:41:20.504Z,8.74
2023-02-11T05:43:51.325Z,8.75
2023-02-11T05:46:18.434Z,8.75
2023-02-11T05:48:45.239Z,8.75
2023-02-11T05:51:11.911Z,8.76
2023-02-11T05:53:38.685Z,8.76
2023-02-11T05:56:05.765Z,8.77
2023-02-11T05:58:33.166Z,8.79
2023-02-11T06:00:59.981Z,8.80
2023-02-11T06:03:26.719Z,8.80
2023-02-11T06:05:53.591Z,8.80
2023-02-11T06:08:20.420Z,8.81
2023-02-11T06:10:47.150Z,8.81
2023-02-11T06:13:14.041Z,8.82
2023-02-11T06:15:40.841Z,8.83
2023-02-11T06:18:08.077Z,8.84
2023-02-11T06:20:35.039Z,8.84
2023-02-11T06:23:01.775Z,8.86
2023-02-11T06:25:28.572Z,8.86
2023-02-11T06:27:55.573Z,8.87
2023-02-11T06:30:22.483Z,8.88
2023-02-11T06:32:49.417Z,8.88
2023-02-11T06:35:16.304Z,8.89
2023-02-11T06:37:43.536Z,8.91
2023-02-11T06:40:11.740Z,8.91
2023-02-11T06:42:39.424Z,8.91
2023-02-11T06:45:09.212Z,8.91
2023-02-11T06:47:36.073Z,8.93
2023-02-11T06:50:03.281Z,8.92
2023-02-11T06:52:30.113Z,8.93
2023-02-11T06:54:56.855Z,8.91
2023-02-11T06:57:23.537Z,8.89
2023-02-11T06:59:50.388Z,8.88
2023-02-11T07:02:20.399Z,8.88
2023-02-11T07:04:47.669Z,8.89
2023-02-11T07:07:14.555Z,8.91
2023-02-11T07:09:41.759Z,8.91
2023-02-11T07:12:10.655Z,8.93
2023-02-11T07:14:37.764Z,8.94
2023-02-11T07:17:04.907Z,8.94
2023-02-11T07:19:32.214Z,8.95
2023-02-11T07:21:59.085Z,8.96
2023-02-11T07:24:25.844Z,8.97
2023-02-11T07:26:55.714Z,8.99
2023-02-11T07:29:22.649Z,8.99
2023-02-11T07:31:49.428Z,9.00
2023-02-11T07:34:16.220Z,9.00
2023-02-11T07:36:46.091Z,8.99
2023-02-11T07:39:13.699Z,8.99
2023-02-11T07:41:40.439Z,9.00
2023-02-11T07:44:07.663Z,8.99
2023-02-11T07:46:35.874Z,8.99
2023-02-11T07:49:03.336Z,9.00
2023-02-11T07:51:31.222Z,9.00
2023-02-11T07:54:00.032Z,9.01
2023-02-11T07:56:28.161Z,9.01
2023-02-11T07:58:55.620Z,9.03
2023-02-11T08:01:27.236Z,9.03
2023-02-11T08:03:58.496Z,9.04
2023-02-11T08:06:27.493Z,9.03
2023-02-11T08:08:54.603Z,9.05
2023-02-11T08:11:26.979Z,9.06
2023-02-11T08:13:55.408Z,9.07
2023-02-11T08:16:26.901Z,9.08
2023-02-11T08:18:55.624Z,9.10
2023-02-11T08:21:22.355Z,9.10
2023-02-11T08:23:49.972Z,9.13
2023-02-11T08:26:19.290Z,9.15
2023-02-11T08:29:45.849Z,9.15
2023-02-11T08:36:15.649Z,9.22
2023-02-11T08:38:42.821Z,9.23
2023-02-11T08:41:09.656Z,9.24
2023-02-11T08:43:37.494Z,9.27
2023-02-11T08:46:05.817Z,9.29
2023-02-11T08:48:32.675Z,9.31
2023-02-11T08:50:59.799Z,9.33
2023-02-11T08:53:27.005Z,9.36
2023-02-11T08:55:55.380Z,9.39
2023-02-11T08:58:22.993Z,9.41
2023-02-11T09:00:50.557Z,9.44
2023-02-11T09:03:17.577Z,9.46
2023-02-11T09:05:46.342Z,9.48
2023-02-11T09:08:14.147Z,9.49
2023-02-11T09:10:40.866Z,9.50
2023-02-11T09:13:08.151Z,9.51
2023-02-11T09:15:35.805Z,9.52
2023-02-11T09:18:05.986Z,9.56
2023-02-11T09:20:32.992Z,9.59
2023-02-11T09:22:59.942Z,9.64
2023-02-11T09:25:26.967Z,9.67
2023-02-11T09:27:54.170Z,9.71
2023-02-11T09:30:21.681Z,9.74
2023-02-11T09:32:48.557Z,9.79
2023-02-11T09:35:15.341Z,9.83
2023-02-11T09:37:42.326Z,9.85
2023-02-11T09:40:10.380Z,9.87
2023-02-11T09:43:01.779Z,9.89
2023-02-11T09:45:31.501Z,9.91
2023-02-11T09:48:05.910Z,9.94
2023-02-11T09:50:36.912Z,9.98
2023-02-11T09:53:15.402Z,10.00
2023-02-11T09:55:46.741Z,9.98
2023-02-11T09:58:16.354Z,9.97
2023-02-11T10:00:57.413Z,9.96
2023-02-11T10:03:36.003Z,9.93
2023-02-11T10:06:29.201Z,9.95
2023-02-11T10:09:04.824Z,9.97
2023-02-11T10:11:52.485Z,9.99
2023-02-11T10:14:29.182Z,10.03
2023-02-11T10:17:38.708Z,10.08
2023-02-11T10:20:19.217Z,10.14
2023-02-11T10:22:49.712Z,10.17
2023-02-11T10:25:26.068Z,10.21
2023-02-11T10:27:57.150Z,10.23
2023-02-11T10:30:31.379Z,10.27
2023-02-11T10:33:04.493Z,10.31
2023-02-11T10:35:32.322Z,10.31
2023-02-11T10:37:59.940Z,10.32
2023-02-11T10:40:29.663Z,10.33
2023-02-11T10:43:01.220Z,10.34
2023-02-11T10:45:38.475Z,10.39
2023-02-11T10:48:07.007Z,10.42
2023-02-11T10:50:35.517Z,10.46
2023-02-11T10:53:17.199Z,10.49
2023-02-11T10:55:52.882Z,10.50
2023-02-11T10:58:29.053Z,10.53
2023-02-11T11:00:58.950Z,10.59
2023-02-11T11:03:39.549Z,10.63
2023-02-11T11:06:09.779Z,10.66
2023-02-11T11:08:45.366Z,10.70
2023-02-11T11:11:14.893Z,10.72
2023-02-11T11:13:54.213Z,10.74
2023-02-11T11:16:33.689Z,10.78
2023-02-11T11:19:09.414Z,10.84
2023-02-11T11:21:40.682Z,10.88
2023-02-11T11:24:19.056Z,10.92
2023-02-11T11:26:55.262Z,10.98
2023-02-11T11:29:33.985Z,11.00
2023-02-11T11:32:05.700Z,11.00
2023-02-11T11:34:39.426Z,11.03
2023-02-11T11:37:28.901Z,11.05
2023-02-11T11:40:08.435Z,11.14
2023-02-11T11:42:37.335Z,11.22
2023-02-11T11:45:24.935Z,11.29
2023-02-11T11:48:03.469Z,11.39
2023-02-11T11:50:56.294Z,11.50
2023-02-11T11:54:02.915Z,11.64
2023-02-11T11:56:33.904Z,11.67
2023-02-11T11:59:06.672Z,11.68
2023-02-11T12:01:48.242Z,11.71
2023-02-11T12:04:18.021Z,11.74
2023-02-11T12:06:45.595Z,11.78
2023-02-11T12:09:37.339Z,11.82
2023-02-11T12:12:06.773Z,11.86
2023-02-11T12:14:36.038Z,12.00
2023-02-11T12:17:08.794Z,12.12
2023-02-11T12:19:44.293Z,12.23
2023-02-11T12:22:23.726Z,12.26
2023-02-11T12:25:08.962Z,12.29
2023-02-11T12:27:44.414Z,12.31
2023-02-11T12:30:23.141Z,12.29
2023-02-11T12:32:57.763Z,12.21
2023-02-11T12:35:42.729Z,12.11
2023-02-11T12:38:16.241Z,12.04
2023-02-11T12:41:10.347Z,11.91
2023-02-11T12:43:42.751Z,11.93
2023-02-11T12:46:10.251Z,11.93
2023-02-11T12:48:39.615Z,11.86
2023-02-11T12:51:15.507Z,11.84
2023-02-11T12:53:49.475Z,11.82
2023-02-11T12:56:29.215Z,11.79
2023-02-11T12:59:00.117Z,11.76
2023-02-11T13:01:29.067Z,11.69
2023-02-11T13:04:06.748Z,11.62
2023-02-11T13:06:41.932Z,11.53
2023-02-11T13:09:19.168Z,11.46
2023-02-11T13:11:52.275Z,11.43
2023-02-11T13:14:29.082Z,11.41
2023-02-11T13:16:58.548Z,11.40
2023-02-11T13:19:38.255Z,11.39
2023-02-11T13:22:57.482Z,11.38
2023-02-11T13:25:40.795Z,11.42
2023-02-11T13:28:10.514Z,11.40
2023-02-11T13:30:41.095Z,11.38
2023-02-11T13:33:17.154Z,11.39
2023-02-11T13:36:09.963Z,11.43
2023-02-11T13:38:37.954Z,11.45
2023-02-11T13:41:25.718Z,11.49
2023-02-11T13:44:22.816Z,11.51
2023-02-11T13:47:02.461Z,11.51
2023-02-11T13:49:42.929Z,11.55
2023-02-11T13:52:33.170Z,11.60
2023-02-11T13:55:14.741Z,11.69
2023-02-11T13:57:42.302Z,11.79
2023-02-11T14:00:34.216Z,12.02
2023-02-11T14:03:31.841Z,12.23
2023-02-11T14:06:42.981Z,12.35
2023-02-11T14:09:29.511Z,12.43
2023-02-11T14:12:32.570Z,12.40
2023-02-11T14:15:20.056Z,12.52
2023-02-11T14:17:47.078Z,12.58
2023-02-11T14:20:44.605Z,12.61
2023-02-11T14:23:24.869Z,12.67
2023-02-11T14:26:03.679Z,12.64
2023-02-11T14:28:34.620Z,12.60
2023-02-11T14:31:10.266Z,12.56
2023-02-11T14:33:58.678Z,12.48
2023-02-11T14:36:31.450Z,12.45
2023-02-11T14:39:17.026Z,12.42
2023-02-11T14:41:47.579Z,12.38
2023-02-11T14:44:22.479Z,12.33
2023-02-11T14:46:53.415Z,12.28
2023-02-11T14:49:36.961Z,12.22
2023-02-11T14:52:34.473Z,12.16
2023-02-11T14:55:31.382Z,12.07
2023-02-11T14:58:18.080Z,12.00
2023-02-11T15:00:58.547Z,11.91
2023-02-11T15:03:43.001Z,11.83
2023-02-11T15:06:20.199Z,11.76
2023-02-11T15:09:14.870Z,11.68
2023-02-11T15:11:44.952Z,11.64
2023-02-11T15:14:24.797Z,11.60
2023-02-11T15:16:54.393Z,11.56
2023-02-11T15:19:37.914Z,11.51
2023-02-11T15:22:07.699Z,11.50
2023-02-11T15:24:35.628Z,11.48
2023-02-11T15:27:14.817Z,11.46
2023-02-11T15:29:49.257Z,11.42
2023-02-11T15:32:18.842Z,11.37
2023-02-11T15:34:46.872Z,11.34
2023-02-11T15:37:25.369Z,11.33
2023-02-11T15:39:54.313Z,11.31
2023-02-11T15:42:26.655Z,11.29
2023-02-11T15:45:24.764Z,11.27
2023-02-11T15:47:58.531Z,11.27
2023-02-11T15:50:29.535Z,11.26
2023-02-11T15:52:59.507Z,11.24
2023-02-11T15:55:28.009Z,11.22
2023-02-11T15:58:03.227Z,11.18
2023-02-11T16:00:37.441Z,11.14
2023-02-11T16:03:05.253Z,11.10
2023-02-11T16:05:37.465Z,11.07
2023-02-11T16:08:22.938Z,11.05
2023-02-11T16:10:58.966Z,11.03
2023-02-11T16:13:30.939Z,11.00
2023-02-11T16:16:02.651Z,10.99
2023-02-11T16:19:03.144Z,10.96
2023-02-11T16:21:42.471Z,10.94
2023-02-11T16:24:20.396Z,10.89
2023-02-11T16:26:56.264Z,10.87
2023-02-11T16:29:33.716Z,10.85
2023-02-11T16:32:10.187Z,10.81
2023-02-11T16:34:37.536Z,10.79
2023-02-11T16:37:05.805Z,10.78
2023-02-11T16:39:32.877Z,10.77
2023-02-11T16:42:00.147Z,10.74
2023-02-11T16:44:27.137Z,10.73
2023-02-11T16:46:54.314Z,10.73
2023-02-11T16:49:28.511Z,10.69
2023-02-11T16:52:01.120Z,10.69
2023-02-11T16:54:29.372Z,10.68
2023-02-11T16:56:56.999Z,10.66
2023-02-11T16:59:23.949Z,10.66
2023-02-11T17:01:53.428Z,10.65
2023-02-11T17:04:31.252Z,10.63
2023-02-11T17:06:58.790Z,10.58
2023-02-11T17:09:30.306Z,10.57
2023-02-11T17:11:57.709Z,10.57
2023-02-11T17:14:24.784Z,10.54
2023-02-11T17:16:51.999Z,10.52
2023-02-11T17:19:21.142Z,10.49
2023-02-11T17:21:50.374Z,10.47
2023-02-11T17:24:17.903Z,10.43
2023-02-11T17:26:45.694Z,10.43
2023-02-11T17:29:16.023Z,10.41
2023-02-11T17:31:43.350Z,10.41
2023-02-11T17:34:10.779Z,10.41
2023-02-11T17:36:37.746Z,10.39
2023-02-11T17:39:08.037Z,10.37
2023-02-11T17:41:36.824Z,10.35
2023-02-11T17:44:04.054Z,10.34
2023-02-11T17:46:32.257Z,10.35
2023-02-11T17:48:59.684Z,10.32
2023-02-11T17:51:33.186Z,10.33
2023-02-11T17:54:02.635Z,10.32
2023-02-11T17:56:33.155Z,10.32
2023-02-11T17:59:00.100Z,10.30
2023-02-11T18:01:31.444Z,10.30
2023-02-11T18:03:58.298Z,10.27
2023-02-11T18:06:25.583Z,10.26
2023-02-11T18:08:52.474Z,10.24
2023-02-11T18:11:19.469Z,10.25
2023-02-11T18:13:51.490Z,10.25
2023-02-11T18:16:18.265Z,10.24
2023-02-11T18:18:45.439Z,10.23
2023-02-11T18:21:14.265Z,10.22
2023-02-11T18:23:41.047Z,10.21
2023-02-11T18:26:09.410Z,10.20
2023-02-11T18:28:36.306Z,10.20
2023-02-11T18:31:04.199Z,10.19
2023-02-11T18:33:31.403Z,10.18
2023-02-11T18:35:58.283Z,10.19
2023-02-11T18:38:25.279Z,10.16
2023-02-11T18:40:52.583Z,10.15
2023-02-11T18:43:20.471Z,10.14
2023-02-11T18:45:49.250Z,10.13
2023-02-11T18:48:17.395Z,10.13
2023-02-11T18:50:45.498Z,10.10
2023-02-11T18:53:15.728Z,10.11
2023-02-11T18:55:44.419Z,10.10
2023-02-11T18:58:11.384Z,10.11
2023-02-11T19:00:40.617Z,10.09
2023-02-11T19:03:07.581Z,10.08
2023-02-11T19:05:42.055Z,10.07
2023-02-11T19:08:08.972Z,10.06
2023-02-11T19:10:35.703Z,10.06
2023-02-11T19:13:02.564Z,10.06
2023-02-11T19:15:29.333Z,10.04
2023-02-11T19:17:56.113Z,10.01
2023-02-11T19:20:23.120Z,9.99
2023-02-11T19:22:49.918Z,9.97
2023-02-11T19:25:16.644Z,9.97
2023-02-11T19:27:43.625Z,9.96
2023-02-11T19:30:11.116Z,9.92
2023-02-11T19:32:37.781Z,9.90
2023-02-11T19:35:04.773Z,9.89
2023-02-11T19:37:31.567Z,9.87
2023-02-11T19:39:58.226Z,9.86
2023-02-11T19:42:27.609Z,9.85
2023-02-11T19:44:54.606Z,9.83
2023-02-11T19:47:27.777Z,9.81
2023-02-11T19:49:56.050Z,9.82
2023-02-11T19:52:22.703Z,9.81
2023-02-11T19:54:49.560Z,9.80
2023-02-11T19:57:16.608Z,9.81
2023-02-11T19:59:43.273Z,9.83
2023-02-11T20:02:13.301Z,9.81
2023-02-11T20:04:40.221Z,9.82
2023-02-11T20:07:06.862Z,9.80
2023-02-11T20:09:33.621Z,9.79
2023-02-11T20:12:00.674Z,9.79
2023-02-11T20:14:28.154Z,9.78
2023-02-11T20:16:55.078Z,9.79
2023-02-11T20:19:22.346Z,9.78
2023-02-11T20:21:52.025Z,9.77
2023-02-11T20:25:18.693Z,9.78
2023-02-11T20:27:45.362Z,9.78
2023-02-11T20:30:13.283Z,9.77
2023-02-11T20:32:40.231Z,9.77
2023-02-11T20:35:08.407Z,9.77
2023-02-11T20:37:35.269Z,9.80
2023-02-11T20:40:02.665Z,9.81
2023-02-11T20:42:30.148Z,9.81
2023-02-11T20:44:56.895Z,9.80
2023-02-11T20:47:23.757Z,9.78
2023-02-11T20:49:50.578Z,9.75
2023-02-11T20:52:17.358Z,9.75
2023-02-11T20:54:44.411Z,9.74
2023-02-11T20:57:11.070Z,9.74
2023-02-11T20:59:37.833Z,9.71
2023-02-11T21:02:04.950Z,9.72
2023-02-11T21:04:32.742Z,9.71
2023-02-11T21:07:01.775Z,9.70
2023-02-11T21:10:28.401Z,9.69
2023-02-11T21:12:55.188Z,9.69
2023-02-11T21:15:24.274Z,9.70
2023-02-11T21:17:51.540Z,9.68
2023-02-11T21:20:18.433Z,9.68
2023-02-11T21:22:45.193Z,9.71
2023-02-11T21:25:12.015Z,9.70
2023-02-11T21:27:38.777Z,9.69
2023-02-11T21:30:06.721Z,9.68
2023-02-11T21:32:33.637Z,9.65
2023-02-11T21:35:02.302Z,9.64
2023-02-11T21:37:29.313Z,9.66
2023-02-11T21:39:56.074Z,9.65
2023-02-11T21:42:22.827Z,9.66
2023-02-11T21:44:49.646Z,9.67
2023-02-11T21:47:16.423Z,9.68
2023-02-11T21:49:43.339Z,9.68
2023-02-11T21:52:10.014Z,9.68
2023-02-11T21:54:36.759Z,9.69
2023-02-11T21:57:03.573Z,9.67
2023-02-11T21:59:33.062Z,9.69
2023-02-11T22:01:59.871Z,9.67
2023-02-11T22:04:27.072Z,9.65
2023-02-11T22:06:53.872Z,9.63
2023-02-11T22:09:20.617Z,9.62
2023-02-11T22:11:49.336Z,9.62
2023-02-11T22:14:16.954Z,9.62
2023-02-11T22:16:47.522Z,9.62
2023-02-11T22:19:14.561Z,9.62
2023-02-11T22:21:43.586Z,9.63
2023-02-11T22:24:10.603Z,9.64
2023-02-11T22:26:37.991Z,9.64
2023-02-11T22:29:04.922Z,9.66
2023-02-11T22:31:33.957Z,9.63
2023-02-11T22:34:02.227Z,9.63
2023-02-11T22:36:34.856Z,9.62
2023-02-11T22:39:03.882Z,9.62
2023-02-11T22:41:30.849Z,9.61
2023-02-11T22:43:57.855Z,9.63
2023-02-11T22:46:24.657Z,9.62
2023-02-11T22:48:51.882Z,9.64
2023-02-11T22:51:25.426Z,9.65
2023-02-11T22:53:52.959Z,9.65
2023-02-11T22:56:20.505Z,9.64
2023-02-11T22:58:50.569Z,9.64
2023-02-11T23:01:17.902Z,9.63
2023-02-11T23:03:44.751Z,9.63
2023-02-11T23:06:12.210Z,9.65
2023-02-11T23:08:40.645Z,9.64
2023-02-11T23:11:10.429Z,9.65
2023-02-11T23:13:39.777Z,9.66
2023-02-11T23:16:09.284Z,9.64
2023-02-11T23:18:38.305Z,9.63
2023-02-11T23:21:09.495Z,9.62
2023-02-11T23:23:37.447Z,9.62
2023-02-11T23:26:04.947Z,9.62
2023-02-11T23:28:31.777Z,9.61
2023-02-11T23:30:58.539Z,9.63
2023-02-11T23:33:25.261Z,9.64
2023-02-11T23:35:52.434Z,9.65
2023-02-11T23:38:19.250Z,9.65
2023-02-11T23:40:46.556Z,9.63
2023-02-11T23:43:13.469Z,9.63
2023-02-11T23:45:40.264Z,9.64
2023-02-11T23:48:06.982Z,9.64
2023-02-11T23:50:34.786Z,9.62
2023-02-11T23:53:01.558Z,9.61
2023-02-11T23:55:30.758Z,9.60
2023-02-11T23:57:57.755Z,9.60
